Data for 12/16/2005

Time Sea-Level Adjusted Pressure Absolute Pressure Temperature Relative Humidity Dew Point   
(mb) (inHg) (mb) (inHg) (C) (F) (%) (C) (F)
00:05 1018 30.06 847 25.01 -9.1 15.6 88 -10.7 12.7
00:10 1018 30.06 847 25.01 -9.2 15.5 89 -10.7 12.7
00:15 1018 30.06 847 25.01 -9 15.7 89 -10.6 12.9
00:20 1018 30.06 847 25.01 -9.1 15.6 88 -10.7 12.7
00:25 1018 30.06 847 25.01 -9.2 15.4 88 -10.8 12.5
00:30 1017 30.03 847 25.01 -9.5 15 90 -10.7 12.7
00:35 1017 30.03 847 25.01 -9.3 15.2 90 -10.7 12.8
00:40 1017 30.03 847 25.01 -9.3 15.3 90 -10.6 12.8
00:45 1017 30.03 847 25.01 -9.4 15.1 90 -10.7 12.7
00:50 1017 30.03 846 24.98 -9.5 14.9 90 -10.8 12.5
00:55 1017 30.03 846 24.98 -9.5 14.9 91 -10.7 12.7
01:00 1017 30.03 846 24.98 -9.6 14.8 91 -10.8 12.6
01:05 1017 30.03 846 24.98 -9.8 14.3 92 -10.9 12.3
01:10 1017 30.03 846 24.98 -9.7 14.6 92 -10.8 12.6
01:15 1017 30.03 846 24.98 -9.5 14.9 91 -10.8 12.6
01:20 1017 30.03 846 24.98 -9.4 15 90 -10.8 12.6
01:25 1017 30.03 846 24.98 -9.5 15 90 -10.9 12.5
01:30 1017 30.03 846 24.98 -9.5 14.9 90 -10.9 12.4
01:35 1017 30.03 846 24.98 -9.7 14.6 91 -10.9 12.3
01:40 1017 30.03 846 24.98 -9.7 14.5 91 -11 12.3
01:45 1017 30.03 847 25.01 -9.8 14.4 91 -11 12.3
01:50 1017 30.03 847 25.01 -9.8 14.4 90 -11.1 12
01:55 1017 30.03 847 25.01 -9.9 14.2 91 -11.1 12
02:00 1017 30.03 847 25.01 -10 14.1 91 -11.2 11.9
02:05 1017 30.03 847 25.01 -10 13.9 91 -11.2 11.8
02:10 1017 30.03 847 25.01 -10.1 13.9 91 -11.2 11.8
02:15 1018 30.06 847 25.01 -10 13.9 91 -11.2 11.8
02:20 1018 30.06 847 25.01 -10.1 13.8 91 -11.3 11.6
02:25 1018 30.06 847 25.01 -10.1 13.7 91 -11.3 11.6
02:30 1018 30.06 847 25.01 -10.2 13.6 91 -11.4 11.4
02:35 1018 30.06 847 25.01 -10.3 13.5 92 -11.4 11.5
02:40 1018 30.06 847 25.01 -10.3 13.5 92 -11.4 11.5
02:45 1018 30.06 847 25.01 -10.4 13.4 92 -11.4 11.5
02:50 1018 30.06 847 25.01 -10.5 13.1 92 -11.5 11.2
02:55 1018 30.06 847 25.01 -10.7 12.8 93 -11.6 11.2
03:00 1018 30.06 847 25.01 -10.6 12.8 93 -11.6 11.2
03:05 1017 30.03 847 25.01 -10.8 12.5 94 -11.6 11
03:10 1017 30.03 847 25.01 -10.9 12.4 94 -11.7 11
03:15 1017 30.03 847 25.01 -11 12.3 94 -11.7 11
03:20 1017 30.03 847 25.01 -10.9 12.4 94 -11.7 11
03:25 1017 30.03 847 25.01 -10.8 12.5 94 -11.7 11
03:30 1017 30.03 847 25.01 -10.7 12.7 93 -11.6 11.1
03:35 1017 30.03 847 25.01 -10.8 12.6 93 -11.7 11
03:40 1017 30.03 847 25.01 -10.8 12.6 93 -11.7 10.9
03:45 1017 30.03 847 25.01 -10.8 12.6 93 -11.7 11
03:50 1017 30.03 847 25.01 -10.6 13 93 -11.5 11.3
03:55 1017 30.03 846 24.98 -10.6 12.8 92 -11.7 10.9
04:00 1017 30.03 846 24.98 -10.7 12.7 92 -11.8 10.8
04:05 1017 30.03 846 24.98 -10.7 12.7 92 -11.7 10.9
04:10 1017 30.03 846 24.98 -10.8 12.6 93 -11.7 10.9
04:15 1017 30.03 846 24.98 -10.8 12.6 93 -11.7 10.9
04:20 1017 30.03 846 24.98 -10.6 12.9 93 -11.6 11.1
04:25 1017 30.03 846 24.98 -10.4 13.3 92 -11.5 11.3
04:30 1017 30.03 846 24.98 -10.2 13.6 91 -11.4 11.4
04:35 1017 30.03 846 24.98 -10.3 13.6 90 -11.6 11.2
04:40 1017 30.03 846 24.98 -10.3 13.4 90 -11.7 11
04:45 1017 30.03 846 24.98 -10.4 13.3 90 -11.7 10.9
04:50 1017 30.03 846 24.98 -10.5 13 90 -11.8 10.7
04:55 1017 30.03 846 24.98 -10.6 13 90 -11.9 10.6
05:00 1017 30.03 846 24.98 -10.6 12.9 91 -11.9 10.6
05:05 1017 30.03 846 24.98 -10.8 12.6 90 -12.1 10.3
05:10 1017 30.03 846 24.98 -10.8 12.5 92 -11.9 10.5
05:15 1016 30 846 24.98 -10.8 12.5 92 -11.9 10.6
05:20 1016 30 846 24.98 -11 12.3 93 -11.9 10.7
05:25 1016 30 846 24.98 -11 12.1 94 -11.9 10.6
05:30 1016 30 846 24.98 -11 12.1 93 -11.9 10.6
05:35 1016 30 846 24.98 -11.1 12.1 93 -11.9 10.5
05:40 1016 30 846 24.98 -11.2 11.8 94 -12 10.4
05:45 1016 30 846 24.98 -11.1 12.1 94 -11.9 10.7
05:50 1016 30 846 24.98 -11 12.3 93 -11.8 10.7
05:55 1016 30 846 24.98 -11 12.3 94 -11.8 10.8
06:00 1016 30 846 24.98 -10.8 12.6 94 -11.6 11.1
06:05 1016 30 846 24.98 -10.6 12.9 93 -11.6 11.2
06:10 1016 30 846 24.98 -10.5 13.1 92 -11.5 11.3
06:15 1017 30.03 846 24.98 -10.4 13.3 92 -11.5 11.4
06:20 1017 30.03 846 24.98 -10.4 13.2 91 -11.6 11.2
06:25 1016 30 846 24.98 -10.5 13.1 92 -11.6 11.1
06:30 1016 30 846 24.98 -10.6 12.8 92 -11.8 10.8
06:35 1016 30 846 24.98 -11 12.3 90 -12.3 9.9
06:40 1016 30 846 24.98 -11.7 11 94 -12.5 9.5
06:45 1016 30 846 24.98 -11.7 11 94 -12.5 9.5
06:50 1016 30 846 24.98 -11.6 11.1 94 -12.4 9.7
06:55 1016 30 845 24.95 -11.4 11.4 94 -12.2 10
07:00 1016 30 845 24.95 -11.5 11.2 93 -12.4 9.6
07:05 1016 30 845 24.95 -11.8 10.8 93 -12.6 9.2
07:10 1016 30 845 24.95 -11.8 10.9 93 -12.6 9.3
07:15 1016 30 845 24.95 -11.5 11.4 94 -12.3 9.9
07:20 1016 30 845 24.95 -11.2 11.8 94 -12.1 10.3
07:25 1016 30 845 24.95 -11.2 11.8 94 -12.1 10.3
07:30 1016 30 845 24.95 -11.3 11.6 91 -12.6 9.4
07:35 1016 30 845 24.95 -11.9 10.6 93 -12.9 8.9
07:40 1016 30 845 24.95 -12 10.5 93 -12.9 8.9
07:45 1016 30 845 24.95 -12 10.5 94 -12.7 9.1
07:50 1016 30 845 24.95 -12 10.5 94 -12.7 9.2
07:55 1016 30 845 24.95 -11.8 10.7 95 -12.5 9.4
08:00 1016 30 845 24.95 -11.7 11 94 -12.4 9.6
08:05 1016 30 845 24.95 -11.6 11.2 95 -12.3 9.9
08:10 1016 30 845 24.95 -11.4 11.5 93 -12.3 9.9
08:15 1016 30 845 24.95 -11.5 11.3 92 -12.5 9.4
08:20 1016 30 845 24.95 -11.7 10.9 93 -12.7 9.2
08:25 1016 30 845 24.95 -11.7 11 93 -12.6 9.2
08:30 1016 30 845 24.95 -11.8 10.8 93 -12.6 9.2
08:35 1016 30 845 24.95 -11.6 11.1 93 -12.5 9.5
08:40 1016 30 845 24.95 -11.5 11.2 93 -12.4 9.6
08:45 1016 30 845 24.95 -11.3 11.6 93 -12.3 9.9
08:50 1016 30 845 24.95 -11.1 12 92 -12.1 10.2
08:55 1016 30 845 24.95 -11 12.2 92 -12 10.3
09:00 1016 30 845 24.95 -10.9 12.5 92 -11.9 10.5
09:05 1016 30 845 24.95 -10.7 12.8 92 -11.8 10.8
09:10 1016 30 845 24.95 -10.5 13.1 92 -11.6 11.2
09:15 1016 30 845 24.95 -10.2 13.6 91 -11.4 11.4
09:20 1015 29.97 845 24.95 -10.1 13.9 91 -11.3 11.6
09:25 1015 29.97 845 24.95 -9.9 14.1 90 -11.3 11.7
09:30 1015 29.97 845 24.95 -9.9 14.1 88 -11.5 11.3
09:35 1015 29.97 845 24.95 -10 14 89 -11.4 11.4
09:40 1015 29.97 844 24.92 -10 14.1 89 -11.5 11.4
09:45 1015 29.97 844 24.92 -9.8 14.4 88 -11.5 11.3
09:50 1015 29.97 844 24.92 -9.7 14.5 88 -11.3 11.6
09:55 1015 29.97 844 24.92 -9.6 14.8 87 -11.3 11.7
10:00 1015 29.97 844 24.92 -9.5 15 86 -11.4 11.6
10:05 1015 29.97 844 24.92 -9 15.7 84 -11.2 11.8
10:10 1015 29.97 844 24.92 -9.2 15.5 85 -11.3 11.7
10:15 1015 29.97 844 24.92 -9.1 15.6 85 -11.1 12
10:20 1015 29.97 844 24.92 -8.7 16.3 83 -11.1 12
10:25 1015 29.97 844 24.92 -8.4 16.8 81 -11.1 12
10:30 1015 29.97 844 24.92 -8.1 17.5 81 -10.8 12.6
10:35 1015 29.97 844 24.92 -7.9 17.8 81 -10.6 12.9
10:40 1015 29.97 844 24.92 -7.4 18.7 78 -10.7 12.8
10:45 1015 29.97 844 24.92 -7.5 18.6 79 -10.5 13.1
10:50 1015 29.97 844 24.92 -7.5 18.6 79 -10.6 13
10:55 1015 29.97 844 24.92 -7.3 18.9 77 -10.7 12.8
11:00 1015 29.97 844 24.92 -7.3 18.9 78 -10.5 13
11:05 1015 29.97 844 24.92 -6.9 19.6 76 -10.4 13.3
11:10 1015 29.97 844 24.92 -6.5 20.3 74 -10.3 13.4
11:15 1015 29.97 844 24.92 -6.3 20.6 74 -10.2 13.6
11:20 1015 29.97 844 24.92 -6.7 20 76 -10.3 13.5
11:25 1015 29.97 844 24.92 -7.1 19.2 77 -10.5 13
11:30 1015 29.97 844 24.92 -7.6 18.3 77 -10.9 12.3
11:35 1015 29.97 844 24.92 -7.6 18.3 77 -10.9 12.4
11:40 1015 29.97 844 24.92 -7.9 17.9 79 -10.9 12.4
11:45 1015 29.97 844 24.92 -7.8 17.9 78 -11 12.2
11:50 1014 29.94 844 24.92 -7.6 18.3 78 -10.8 12.6
11:55 1014 29.94 844 24.92 -7.2 19 75 -10.9 12.3
12:00 1014 29.94 843 24.89 -7.2 19 75 -10.9 12.4
12:05 1014 29.94 843 24.89 -7.3 19 76 -10.8 12.6
12:10 1014 29.94 843 24.89 -6.8 19.8 75 -10.5 13
12:15 1014 29.94 843 24.89 -6.8 19.7 75 -10.5 13
12:20 1014 29.94 843 24.89 -6.8 19.7 75 -10.5 13.1
12:25 1014 29.94 843 24.89 -6.9 19.6 76 -10.5 13.1
12:30 1014 29.94 843 24.89 -6.6 20.1 75 -10.4 13.4
12:35 1014 29.94 843 24.89 -6.7 20 75 -10.4 13.2
12:40 1014 29.94 843 24.89 -7.5 18.4 81 -10.3 13.4
12:45 1014 29.94 843 24.89 -8.1 17.4 83 -10.5 13.2
12:50 1014 29.94 843 24.89 -8.1 17.4 82 -10.8 12.6
12:55 1014 29.94 843 24.89 -7.7 18.1 80 -10.7 12.8
13:00 1014 29.94 843 24.89 -7.2 19.1 77 -10.5 13.1
13:05 1014 29.94 843 24.89 -7.2 19 77 -10.6 12.9
13:10 1014 29.94 843 24.89 -7.1 19.2 77 -10.5 13.1
13:15 1014 29.94 843 24.89 -6.9 19.6 74 -10.8 12.5
13:20 1014 29.94 843 24.89 -7 19.3 75 -10.8 12.6
13:25 1014 29.94 843 24.89 -7.2 19.1 75 -10.9 12.3
13:30 1014 29.94 843 24.89 -7 19.4 74 -10.9 12.4
13:35 1014 29.94 843 24.89 -6.5 20.3 71 -11 12.2
13:40 1014 29.94 843 24.89 -6.3 20.7 71 -10.8 12.6
13:45 1014 29.94 843 24.89 -6.3 20.7 70 -10.8 12.5
13:50 1013 29.91 843 24.89 -6.5 20.4 74 -10.4 13.2
13:55 1013 29.91 843 24.89 -6.9 19.7 73 -10.9 12.4
14:00 1014 29.94 843 24.89 -7.2 19.1 75 -10.9 12.4
14:05 1014 29.94 843 24.89 -7.1 19.2 74 -11 12.2
14:10 1014 29.94 843 24.89 -7.7 18.1 80 -10.6 12.9
14:15 1013 29.91 843 24.89 -7.9 17.7 80 -10.8 12.6
14:20 1013 29.91 843 24.89 -7.9 17.8 78 -11 12.1
14:25 1013 29.91 843 24.89 -7.7 18.1 78 -11 12.3
14:30 1013 29.91 843 24.89 -7.9 17.8 78 -11.1 12.1
14:35 1013 29.91 843 24.89 -8.1 17.5 81 -10.7 12.7
14:40 1013 29.91 843 24.89 -8.3 17.1 81 -11 12.3
14:45 1013 29.91 843 24.89 -8.3 17.1 81 -11 12.2
14:50 1013 29.91 843 24.89 -8.4 16.9 82 -10.9 12.4
14:55 1013 29.91 842 24.86 -8.5 16.6 83 -10.9 12.4
15:00 1013 29.91 842 24.86 -8.4 17 81 -11 12.1
15:05 1013 29.91 842 24.86 -8.4 16.9 82 -10.9 12.3
15:10 1013 29.91 842 24.86 -8.4 16.9 83 -10.8 12.6
15:15 1013 29.91 842 24.86 -8.1 17.4 83 -10.5 13.1
15:20 1013 29.91 842 24.86 -7.9 17.7 82 -10.5 13.2
15:25 1013 29.91 842 24.86 -7.8 18 83 -10.2 13.6
15:30 1013 29.91 842 24.86 -7.7 18.1 82 -10.3 13.4
15:35 1013 29.91 842 24.86 -8 17.7 84 -10.2 13.6
15:40 1013 29.91 842 24.86 -7.7 18.1 84 -10 14
15:45 1013 29.91 842 24.86 -7.9 17.8 83 -10.3 13.4
15:50 1013 29.91 842 24.86 -7.9 17.8 83 -10.3 13.5
15:55 1013 29.91 842 24.86 -7.8 18 83 -10.2 13.6
16:00 1013 29.91 842 24.86 -7.9 17.9 83 -10.2 13.6
16:05 1013 29.91 842 24.86 -8 17.6 84 -10.2 13.6
16:10 1013 29.91 842 24.86 -8.2 17.3 86 -10.2 13.7
16:15 1013 29.91 842 24.86 -8.2 17.2 87 -10 14
16:20 1013 29.91 842 24.86 -8.4 16.8 90 -9.8 14.4
16:25 1013 29.91 843 24.89 -8.5 16.7 90 -9.8 14.3
16:30 1013 29.91 843 24.89 -8.7 16.4 91 -9.9 14.3
16:35 1013 29.91 843 24.89 -8.8 16.2 92 -9.9 14.2
16:40 1013 29.91 843 24.89 -8.8 16.1 92 -9.8 14.3
16:45 1013 29.91 843 24.89 -8.7 16.3 93 -9.7 14.5
16:50 1013 29.91 843 24.89 -8.6 16.6 92 -9.7 14.6
16:55 1013 29.91 843 24.89 -8.6 16.6 92 -9.7 14.5
17:00 1014 29.94 843 24.89 -8.6 16.5 92 -9.6 14.7
17:05 1014 29.94 843 24.89 -8.5 16.8 92 -9.5 14.9
17:10 1014 29.94 843 24.89 -8.6 16.5 90 -10 14.1
17:15 1014 29.94 843 24.89 -9 15.9 86 -10.8 12.5
17:20 1014 29.94 843 24.89 -9.3 15.2 88 -11 12.2
17:25 1014 29.94 843 24.89 -9.5 14.9 88 -11.1 12.1
17:30 1014 29.94 843 24.89 -9.7 14.5 91 -10.9 12.3
17:35 1014 29.94 843 24.89 -10 14.1 91 -11.1 12
17:40 1014 29.94 843 24.89 -10.1 13.8 91 -11.3 11.7
17:45 1014 29.94 843 24.89 -10.3 13.5 91 -11.5 11.3
17:50 1014 29.94 843 24.89 -10.5 13.2 91 -11.6 11.1
17:55 1014 29.94 843 24.89 -10.6 13 91 -11.8 10.8
18:00 1014 29.94 843 24.89 -10.6 12.8 90 -11.9 10.5
18:05 1014 29.94 843 24.89 -10.7 12.8 89 -12.1 10.1
18:10 1014 29.94 843 24.89 -10.7 12.8 87 -12.4 9.6
18:15 1014 29.94 843 24.89 -10.7 12.8 87 -12.5 9.5
18:20 1014 29.94 843 24.89 -10.9 12.5 87 -12.6 9.3
18:25 1014 29.94 843 24.89 -10.9 12.4 86 -12.8 8.9
18:30 1014 29.94 844 24.92 -11.1 12.1 85 -13 8.5
18:35 1015 29.97 844 24.92 -11.3 11.7 86 -13.2 8.3
18:40 1014 29.94 844 24.92 -11.4 11.6 86 -13.3 8
18:45 1015 29.97 844 24.92 -11.5 11.3 85 -13.5 7.7
18:50 1015 29.97 844 24.92 -11.5 11.2 84 -13.8 7.2
18:55 1015 29.97 844 24.92 -11.5 11.3 82 -13.9 6.9
19:00 1015 29.97 844 24.92 -11.5 11.3 83 -13.8 7.1
19:05 1015 29.97 844 24.92 -11.6 11.1 84 -13.8 7.1
19:10 1015 29.97 844 24.92 -11.7 11 83 -14.1 6.7
19:15 1015 29.97 844 24.92 -11.7 11 83 -14.1 6.7
19:20 1015 29.97 844 24.92 -11.6 11 82 -14.2 6.5
19:25 1015 29.97 844 24.92 -11.7 11 82 -14.2 6.4
19:30 1015 29.97 844 24.92 -11.7 11 81 -14.3 6.2
19:35 1015 29.97 844 24.92 -11.7 11 81 -14.3 6.2
19:40 1015 29.97 845 24.95 -11.7 11 80 -14.4 6
19:45 1015 29.97 844 24.92 -11.7 10.9 80 -14.5 6
19:50 1015 29.97 844 24.92 -11.7 10.9 80 -14.5 5.8
19:55 1015 29.97 844 24.92 -11.8 10.9 82 -14.3 6.3
20:00 1015 29.97 845 24.95 -11.8 10.7 83 -14.2 6.4
20:05 1015 29.97 845 24.95 -11.9 10.6 82 -14.4 6
20:10 1016 30 845 24.95 -11.9 10.6 82 -14.4 6
20:15 1015 29.97 845 24.95 -11.8 10.7 81 -14.5 6
20:20 1016 30 845 24.95 -11.8 10.7 82 -14.3 6.2
20:25 1016 30 845 24.95 -11.9 10.6 82 -14.3 6.2
20:30 1015 29.97 845 24.95 -11.9 10.7 81 -14.4 6
20:35 1016 30 845 24.95 -11.9 10.5 83 -14.2 6.4
20:40 1016 30 845 24.95 -12 10.4 84 -14.3 6.3
20:45 1016 30 845 24.95 -12 10.4 84 -14.2 6.5
20:50 1016 30 845 24.95 -12.1 10.1 84 -14.4 6.2
20:55 1016 30 845 24.95 -12.2 10.1 83 -14.5 6
21:00 1016 30 845 24.95 -12.2 10.1 83 -14.6 5.8
21:05 1016 30 845 24.95 -12.2 10 82 -14.7 5.6
21:10 1016 30 845 24.95 -12.3 9.9 81 -14.8 5.3
21:15 1016 30 845 24.95 -12.2 10 82 -14.7 5.5
21:20 1016 30 845 24.95 -12.3 9.9 82 -14.8 5.4
21:25 1016 30 845 24.95 -12.3 9.9 81 -14.9 5.2
21:30 1016 30 845 24.95 -12.3 9.9 81 -14.9 5.2
21:35 1016 30 845 24.95 -12.3 9.9 80 -15.1 4.9
21:40 1016 30 845 24.95 -12.2 10 80 -15 5
21:45 1016 30 845 24.95 -12.3 9.8 81 -14.9 5.1
21:50 1016 30 845 24.95 -12.4 9.7 80 -15.1 4.8
21:55 1016 30 845 24.95 -12.4 9.7 81 -15.1 4.8
22:00 1016 30 845 24.95 -12.4 9.6 81 -15.1 4.8
22:05 1016 30 846 24.98 -12.5 9.5 80 -15.2 4.6
22:10 1016 30 846 24.98 -12.6 9.4 80 -15.3 4.4
22:15 1017 30.03 846 24.98 -12.6 9.2 79 -15.5 4.1
22:20 1017 30.03 846 24.98 -12.7 9.2 78 -15.7 3.7
22:25 1017 30.03 846 24.98 -12.7 9.2 78 -15.8 3.6
22:30 1017 30.03 846 24.98 -12.8 9 77 -16 3.3
22:35 1017 30.03 846 24.98 -12.7 9.1 77 -16 3.3
22:40 1017 30.03 846 24.98 -12.8 9 77 -16.1 3
22:45 1017 30.03 846 24.98 -12.8 8.9 77 -16.1 3
22:50 1017 30.03 846 24.98 -12.8 8.9 77 -16.1 3
22:55 1017 30.03 846 24.98 -12.9 8.7 77 -16.2 2.8
23:00 1017 30.03 846 24.98 -12.9 8.8 76 -16.2 2.8
23:05 1017 30.03 846 24.98 -12.9 8.8 76 -16.3 2.7
23:10 1017 30.03 846 24.98 -12.9 8.7 76 -16.3 2.7
23:15 1017 30.03 846 24.98 -12.9 8.8 76 -16.3 2.6
23:20 1017 30.03 846 24.98 -13 8.7 76 -16.3 2.7
23:25 1017 30.03 846 24.98 -13 8.7 77 -16.3 2.7
23:30 1017 30.03 846 24.98 -13.1 8.5 77 -16.3 2.7
23:35 1017 30.03 846 24.98 -13.1 8.5 78 -16.2 2.8
23:40 1017 30.03 846 24.98 -13.2 8.3 77 -16.4 2.5
23:45 1017 30.03 846 24.98 -13.2 8.2 78 -16.4 2.6
23:50 1017 30.03 846 24.98 -13.3 8.1 77 -16.5 2.4
23:55 1017 30.03 846 24.98 -13.4 8 77 -16.7 2
24:00 1017 30.03 846 24.98 -13.3 8 76 -16.7 2